createdAt,value
2023-03-10T00:01:46.066Z,8.95
2023-03-10T00:06:48.313Z,8.97
2023-03-10T00:11:52.545Z,8.99
2023-03-10T00:16:56.671Z,9.04
2023-03-10T00:22:00.852Z,9.05
2023-03-10T00:27:04.947Z,9.09
2023-03-10T00:32:09.218Z,9.16
2023-03-10T00:37:13.295Z,9.25
2023-03-10T00:42:17.474Z,9.26
2023-03-10T00:47:21.678Z,9.33
2023-03-10T00:52:25.757Z,9.38
2023-03-10T00:57:29.955Z,9.45
2023-03-10T01:02:34.112Z,9.42
2023-03-10T01:07:38.255Z,9.49
2023-03-10T01:12:42.428Z,9.51
2023-03-10T01:17:46.604Z,9.47
2023-03-10T01:22:50.766Z,9.40
2023-03-10T01:27:54.895Z,9.35
2023-03-10T01:32:59.091Z,9.33
2023-03-10T01:38:03.226Z,9.33
2023-03-10T01:43:07.539Z,9.26
2023-03-10T01:48:11.540Z,9.19
2023-03-10T01:53:13.818Z,9.16
2023-03-10T01:58:18.012Z,9.09
2023-03-10T02:03:22.182Z,9.02
2023-03-10T02:08:26.312Z,8.98
2023-03-10T02:13:28.590Z,8.90
2023-03-10T02:18:32.758Z,8.86
2023-03-10T02:23:38.479Z,8.85
2023-03-10T02:28:41.095Z,8.86
2023-03-10T02:33:45.246Z,8.86
2023-03-10T02:38:49.397Z,8.85
2023-03-10T02:43:53.594Z,8.86
2023-03-10T02:48:57.718Z,8.88
2023-03-10T02:54:01.882Z,8.86
2023-03-10T02:59:06.058Z,8.84
2023-03-10T03:04:10.256Z,8.90
2023-03-10T03:09:14.357Z,8.93
2023-03-10T03:14:19.577Z,8.94
2023-03-10T03:19:22.708Z,8.98
2023-03-10T03:24:26.859Z,8.95
2023-03-10T03:29:31.000Z,8.95
2023-03-10T03:34:35.178Z,8.92
2023-03-10T03:39:39.431Z,8.89
2023-03-10T03:44:43.510Z,8.90
2023-03-10T03:49:47.645Z,8.89
2023-03-10T03:54:51.855Z,8.89
2023-03-10T03:59:54.128Z,8.89
2023-03-10T04:04:58.233Z,8.95
2023-03-10T04:10:00.603Z,9.00
2023-03-10T04:15:04.657Z,8.97
2023-03-10T04:20:08.977Z,8.97
2023-03-10T04:25:13.020Z,8.95
2023-03-10T04:30:17.164Z,8.99
2023-03-10T04:35:21.326Z,8.99
2023-03-10T04:40:25.522Z,8.88
2023-03-10T04:45:29.645Z,8.78
2023-03-10T04:50:33.835Z,8.85
2023-03-10T04:55:38.007Z,8.89
2023-03-10T05:05:46.317Z,8.84
2023-03-10T05:10:50.473Z,8.83
2023-03-10T05:15:54.655Z,8.85
2023-03-10T05:20:58.811Z,8.91
2023-03-10T05:26:02.935Z,8.95
2023-03-10T05:31:07.143Z,8.96
2023-03-10T05:36:11.343Z,8.98
2023-03-10T05:41:13.773Z,8.96
2023-03-10T05:46:17.728Z,8.97
2023-03-10T05:51:21.898Z,8.98
2023-03-10T05:56:26.065Z,9.01
2023-03-10T06:01:28.290Z,8.96
2023-03-10T06:06:32.481Z,8.92
2023-03-10T06:11:34.749Z,8.92
2023-03-10T06:16:38.977Z,8.91
2023-03-10T06:21:43.076Z,8.91
2023-03-10T06:26:47.217Z,8.90
2023-03-10T06:31:51.431Z,8.91
2023-03-10T06:36:55.564Z,8.97
2023-03-10T06:41:59.898Z,8.96
2023-03-10T06:47:03.881Z,9.01
2023-03-10T06:52:08.063Z,9.03
2023-03-10T06:57:12.213Z,9.04
2023-03-10T07:02:16.359Z,9.10
2023-03-10T07:07:20.511Z,9.12
2023-03-10T07:12:24.652Z,9.11
2023-03-10T07:17:28.846Z,9.12
2023-03-10T07:22:32.990Z,9.09
2023-03-10T07:27:37.143Z,9.04
2023-03-10T07:32:41.457Z,9.06
2023-03-10T07:37:45.502Z,9.09
2023-03-10T07:42:49.641Z,9.14
2023-03-10T07:47:53.832Z,9.20
2023-03-10T07:52:57.982Z,9.26
2023-03-10T07:58:02.163Z,9.22
2023-03-10T08:03:04.426Z,9.28
2023-03-10T08:08:08.545Z,9.36
2023-03-10T08:13:10.850Z,9.47
2023-03-10T08:18:14.994Z,9.45
2023-03-10T08:23:19.164Z,9.63
2023-03-10T08:28:23.364Z,9.65
2023-03-10T08:33:27.478Z,9.74
2023-03-10T08:38:31.640Z,9.79
2023-03-10T08:43:35.797Z,9.84
2023-03-10T08:48:42.644Z,10.05
2023-03-10T08:53:44.155Z,10.13
2023-03-10T08:58:48.306Z,10.23
2023-03-10T09:03:52.473Z,10.27
2023-03-10T09:08:56.659Z,10.32
2023-03-10T09:14:00.935Z,10.21
2023-03-10T09:19:04.938Z,10.21
2023-03-10T09:24:09.102Z,10.17
2023-03-10T09:29:13.265Z,10.22
2023-03-10T09:34:17.438Z,10.24
2023-03-10T09:39:21.569Z,10.37
2023-03-10T09:44:25.785Z,10.53
2023-03-10T09:49:29.910Z,10.78
2023-03-10T09:54:34.068Z,11.00
2023-03-10T09:59:36.436Z,11.18
2023-03-10T10:04:40.623Z,11.14
2023-03-10T10:09:44.693Z,11.20
2023-03-10T10:14:56.661Z,11.29
2023-03-10T10:19:51.060Z,11.44
2023-03-10T10:24:55.261Z,11.34
2023-03-10T10:29:59.428Z,11.29
2023-03-10T10:35:03.561Z,11.54
2023-03-10T10:40:09.347Z,11.99
2023-03-10T10:45:11.871Z,12.05
2023-03-10T10:50:17.902Z,12.28
2023-03-10T10:55:20.194Z,12.26
2023-03-10T11:00:24.362Z,12.16
2023-03-10T11:05:28.530Z,12.41
2023-03-10T11:10:32.721Z,12.68
2023-03-10T11:15:36.978Z,12.77
2023-03-10T11:20:41.001Z,12.71
2023-03-10T11:25:45.193Z,12.54
2023-03-10T11:30:49.372Z,12.56
2023-03-10T11:35:53.530Z,12.40
2023-03-10T11:40:57.639Z,12.29
2023-03-10T11:46:01.840Z,12.23
2023-03-10T11:51:05.973Z,12.05
2023-03-10T11:56:10.148Z,11.63
2023-03-10T12:01:12.397Z,11.17
2023-03-10T12:06:16.565Z,10.93
2023-03-10T12:11:18.865Z,10.68
2023-03-10T12:16:23.152Z,10.64
2023-03-10T12:21:27.245Z,10.58
2023-03-10T12:26:31.341Z,10.48
2023-03-10T12:31:35.625Z,10.32
2023-03-10T12:36:39.650Z,10.22
2023-03-10T12:41:43.780Z,10.12
2023-03-10T12:46:48.109Z,10.08
2023-03-10T12:51:52.103Z,10.06
2023-03-10T12:56:56.264Z,10.16
2023-03-10T13:02:00.494Z,10.41
2023-03-10T13:07:04.637Z,10.69
2023-03-10T13:12:09.022Z,10.41
2023-03-10T13:17:12.921Z,10.40
2023-03-10T13:22:17.122Z,10.34
2023-03-10T13:27:22.489Z,10.14
2023-03-10T13:32:25.511Z,9.93
2023-03-10T13:37:29.610Z,9.74
2023-03-10T13:42:43.450Z,9.75
2023-03-10T13:47:37.876Z,9.74
2023-03-10T13:52:42.082Z,9.75
2023-03-10T13:57:44.448Z,9.60
2023-03-10T14:02:48.502Z,9.61
2023-03-10T14:07:52.669Z,9.56
2023-03-10T14:12:54.941Z,9.40
2023-03-10T14:17:59.061Z,9.48
2023-03-10T14:23:03.295Z,9.37
2023-03-10T14:28:07.396Z,9.24
2023-03-10T14:33:11.623Z,9.15
2023-03-10T14:38:15.719Z,9.11
2023-03-10T14:43:19.899Z,9.04
2023-03-10T14:48:24.049Z,9.01
2023-03-10T14:53:28.202Z,8.96
2023-03-10T14:58:32.380Z,8.69
2023-03-10T15:03:36.539Z,8.49
2023-03-10T15:08:40.699Z,8.38
2023-03-10T15:13:44.885Z,8.21
2023-03-10T15:18:49.008Z,8.05
2023-03-10T15:23:53.202Z,7.89
2023-03-10T15:28:57.320Z,7.72
2023-03-10T15:34:01.529Z,7.62
2023-03-10T15:39:05.664Z,7.33
2023-03-10T15:44:09.799Z,7.16
2023-03-10T15:49:13.997Z,7.10
2023-03-10T15:54:18.155Z,7.10
2023-03-10T15:59:20.425Z,7.08
2023-03-10T16:04:24.669Z,6.99
2023-03-10T16:09:26.862Z,6.90
2023-03-10T16:14:31.080Z,6.83
2023-03-10T16:19:35.184Z,6.77
2023-03-10T16:24:39.329Z,6.72
2023-03-10T16:29:43.528Z,6.68
2023-03-10T16:34:47.676Z,6.68
2023-03-10T16:39:51.804Z,6.68
2023-03-10T16:44:56.013Z,6.12
2023-03-10T16:50:00.194Z,5.25
2023-03-10T16:55:04.316Z,4.63
2023-03-10T17:00:08.488Z,4.27
2023-03-10T17:05:15.073Z,3.91
2023-03-10T17:10:16.799Z,3.53
2023-03-10T17:15:20.972Z,2.94
2023-03-10T17:20:25.142Z,2.29
2023-03-10T17:25:29.318Z,1.85
2023-03-10T17:30:33.448Z,1.63
2023-03-10T17:35:37.677Z,1.31
2023-03-10T17:40:41.822Z,1.25
2023-03-10T17:45:45.969Z,1.09
2023-03-10T17:50:50.145Z,0.97
2023-03-10T17:55:52.380Z,0.96
2023-03-10T18:00:56.531Z,0.93
2023-03-10T18:05:58.847Z,0.79
2023-03-10T18:11:03.000Z,0.76
2023-03-10T18:16:07.251Z,0.70
2023-03-10T18:21:11.349Z,0.70
2023-03-10T18:26:15.488Z,0.61
2023-03-10T18:31:21.722Z,0.57
2023-03-10T18:36:23.867Z,0.58
2023-03-10T18:41:27.982Z,0.54
2023-03-10T18:46:32.217Z,0.59
2023-03-10T18:51:36.316Z,0.60
2023-03-10T18:56:40.506Z,0.60
2023-03-10T19:01:44.675Z,0.59
2023-03-10T19:06:48.809Z,0.60
2023-03-10T19:11:53.099Z,0.58
2023-03-10T19:16:57.126Z,0.52
2023-03-10T19:22:01.351Z,0.55
2023-03-10T19:27:05.485Z,0.44
2023-03-10T19:32:09.648Z,0.40
2023-03-10T19:37:13.840Z,0.36
2023-03-10T19:42:17.972Z,0.30
2023-03-10T19:47:22.137Z,0.33
2023-03-10T19:52:24.468Z,0.32
2023-03-10T19:57:28.597Z,0.31
2023-03-10T20:02:32.783Z,0.35
2023-03-10T20:07:35.023Z,0.31
2023-03-10T20:12:39.172Z,0.31
2023-03-10T20:17:43.357Z,0.35
2023-03-10T20:22:47.502Z,0.35
2023-03-10T20:27:51.706Z,0.35
2023-03-10T20:32:55.898Z,0.37
2023-03-10T20:37:59.989Z,0.39
2023-03-10T20:43:04.211Z,0.40
2023-03-10T20:48:08.318Z,0.43
2023-03-10T20:53:12.528Z,0.43
2023-03-10T20:58:16.687Z,0.48
2023-03-10T21:03:20.839Z,0.52
2023-03-10T21:08:25.017Z,0.52
2023-03-10T21:13:29.180Z,0.55
2023-03-10T21:18:33.333Z,0.57
2023-03-10T21:23:37.506Z,0.57
2023-03-10T21:28:41.708Z,0.59
2023-03-10T21:33:45.837Z,0.60
2023-03-10T21:38:50.082Z,0.61
2023-03-10T21:43:54.200Z,0.62
2023-03-10T21:48:58.346Z,0.65
2023-03-10T21:54:00.726Z,0.64
2023-03-10T21:59:04.803Z,0.64
2023-03-10T22:04:07.077Z,0.64
2023-03-10T22:09:11.226Z,0.64
2023-03-10T22:19:19.524Z,0.65
2023-03-10T22:24:23.693Z,0.65
2023-03-10T22:29:27.906Z,0.64
2023-03-10T22:34:32.022Z,0.63
2023-03-10T22:39:34.326Z,0.65
2023-03-10T22:44:38.483Z,0.67
2023-03-10T22:49:42.624Z,0.66
2023-03-10T22:54:46.780Z,0.68
2023-03-10T22:59:50.983Z,0.68
2023-03-10T23:04:55.152Z,0.67
2023-03-10T23:09:59.342Z,0.66
2023-03-10T23:15:09.362Z,0.65
2023-03-10T23:20:07.654Z,0.64
2023-03-10T23:25:12.322Z,0.56
2023-03-10T23:30:16.095Z,0.50
2023-03-10T23:35:20.134Z,0.47
2023-03-10T23:40:24.330Z,0.47
2023-03-10T23:45:28.485Z,0.47
2023-03-10T23:50:32.622Z,0.41
2023-03-10T23:55:34.894Z,0.41
